createdAt,value
2017-07-19T00:00:01.094Z,4
2017-07-19T00:01:03.255Z,4
2017-07-19T00:02:05.438Z,4
2017-07-19T00:03:07.592Z,4
2017-07-19T00:04:09.758Z,4
2017-07-19T00:05:11.951Z,4
2017-07-19T00:06:14.092Z,4
2017-07-19T00:07:16.270Z,12
2017-07-19T00:08:18.498Z,4
2017-07-19T00:09:20.658Z,4
2017-07-19T00:10:22.898Z,4
2017-07-19T00:11:25.060Z,4
2017-07-19T00:12:27.284Z,4
2017-07-19T00:13:29.451Z,4
2017-07-19T00:14:31.644Z,4
2017-07-19T00:15:33.898Z,4
2017-07-19T00:16:36.076Z,4
2017-07-19T00:17:38.270Z,4
2017-07-19T00:18:40.461Z,4
2017-07-19T00:19:42.620Z,4
2017-07-19T00:20:44.817Z,4
2017-07-19T00:21:46.996Z,4
2017-07-19T00:22:49.177Z,4
2017-07-19T00:23:51.431Z,4
2017-07-19T00:24:53.525Z,4
2017-07-19T00:25:55.705Z,4
2017-07-19T00:26:57.807Z,4
2017-07-19T00:27:59.965Z,4
2017-07-19T00:29:02.118Z,4
2017-07-19T00:30:04.242Z,4
2017-07-19T00:31:06.377Z,4
2017-07-19T00:32:08.384Z,4
2017-07-19T00:33:10.575Z,4
2017-07-19T00:34:12.820Z,4
2017-07-19T00:35:14.999Z,4
2017-07-19T00:36:17.276Z,4
2017-07-19T00:37:19.458Z,4
2017-07-19T00:38:21.663Z,4
2017-07-19T00:39:23.815Z,4
2017-07-19T00:40:26.034Z,4
2017-07-19T00:41:28.153Z,4
2017-07-19T00:42:30.135Z,4
2017-07-19T00:43:32.301Z,4
2017-07-19T00:44:34.442Z,4
2017-07-19T00:45:36.514Z,4
2017-07-19T00:46:38.650Z,4
2017-07-19T00:47:40.898Z,4
2017-07-19T00:48:43.066Z,4
2017-07-19T00:49:45.184Z,4
2017-07-19T00:50:47.377Z,4
2017-07-19T00:51:49.596Z,4
2017-07-19T00:52:51.723Z,4
2017-07-19T00:53:53.940Z,4
2017-07-19T00:54:56.053Z,4
2017-07-19T00:55:58.262Z,4
2017-07-19T00:57:00.511Z,4
2017-07-19T00:58:02.682Z,4
2017-07-19T00:59:04.847Z,4
2017-07-19T01:00:07.037Z,12
2017-07-19T01:01:09.152Z,12
2017-07-19T01:02:11.272Z,4
2017-07-19T01:03:13.454Z,4
2017-07-19T01:04:15.730Z,4
2017-07-19T01:05:17.907Z,4
2017-07-19T01:06:20.102Z,4
2017-07-19T01:07:22.255Z,4
2017-07-19T01:08:24.401Z,4
2017-07-19T01:09:26.639Z,4
2017-07-19T01:10:28.853Z,4
2017-07-19T01:11:31.029Z,4
2017-07-19T01:12:33.267Z,4
2017-07-19T01:13:35.410Z,4
2017-07-19T01:14:37.588Z,4
2017-07-19T01:15:39.690Z,4
2017-07-19T01:16:41.863Z,4
2017-07-19T01:17:44.017Z,4
2017-07-19T01:18:46.067Z,4
2017-07-19T01:19:48.260Z,4
2017-07-19T01:20:50.402Z,4
2017-07-19T01:21:52.605Z,4
2017-07-19T01:22:54.697Z,4
2017-07-19T01:23:56.823Z,4
2017-07-19T01:24:58.942Z,4
2017-07-19T01:26:01.168Z,4
2017-07-19T01:27:03.261Z,4
2017-07-19T01:28:05.471Z,4
2017-07-19T01:29:07.664Z,4
2017-07-19T01:30:09.908Z,4
2017-07-19T01:31:12.007Z,4
2017-07-19T01:32:14.134Z,4
2017-07-19T01:33:16.306Z,4
2017-07-19T01:34:18.422Z,4
2017-07-19T01:35:20.552Z,4
2017-07-19T01:36:22.664Z,4
2017-07-19T01:37:24.895Z,4
2017-07-19T01:38:27.029Z,4
2017-07-19T01:39:29.181Z,4
2017-07-19T01:40:31.365Z,4
2017-07-19T01:41:33.504Z,4
2017-07-19T01:42:35.625Z,4
2017-07-19T01:43:37.839Z,4
2017-07-19T01:44:40.020Z,4
2017-07-19T01:45:42.134Z,4
2017-07-19T01:46:44.317Z,4
2017-07-19T01:47:46.383Z,4
2017-07-19T01:48:48.559Z,12
2017-07-19T01:49:50.793Z,4
2017-07-19T01:50:52.802Z,4
2017-07-19T01:51:54.989Z,4
2017-07-19T01:52:57.126Z,4
2017-07-19T01:53:59.253Z,4
2017-07-19T01:55:01.408Z,4
2017-07-19T01:56:03.569Z,4
2017-07-19T01:57:05.634Z,4
2017-07-19T01:58:07.806Z,4
2017-07-19T01:59:09.903Z,4
2017-07-19T02:00:12.063Z,4
2017-07-19T02:01:14.314Z,4
2017-07-19T02:02:16.462Z,4
2017-07-19T02:03:18.588Z,4
2017-07-19T02:04:20.775Z,4
2017-07-19T02:05:22.932Z,4
2017-07-19T02:06:25.018Z,4
2017-07-19T02:07:27.226Z,4
2017-07-19T02:08:29.352Z,4
2017-07-19T02:09:31.401Z,4
2017-07-19T02:10:33.455Z,4
2017-07-19T02:11:35.608Z,4
2017-07-19T02:12:37.785Z,4
2017-07-19T02:13:39.885Z,4
2017-07-19T02:14:42.072Z,4
2017-07-19T02:15:44.136Z,4
2017-07-19T02:16:46.331Z,4
2017-07-19T02:17:48.519Z,4
2017-07-19T02:18:50.652Z,4
2017-07-19T02:19:52.813Z,4
2017-07-19T02:20:54.995Z,4
2017-07-19T02:21:57.129Z,4
2017-07-19T02:22:59.217Z,4
2017-07-19T02:24:01.359Z,4
2017-07-19T02:25:03.593Z,4
2017-07-19T02:26:05.695Z,4
2017-07-19T02:27:07.856Z,4
2017-07-19T02:28:09.907Z,4
2017-07-19T02:29:12.038Z,4
2017-07-19T02:30:14.171Z,4
2017-07-19T02:31:16.333Z,4
2017-07-19T02:32:18.454Z,4
2017-07-19T02:33:20.577Z,4
2017-07-19T02:34:22.709Z,4
2017-07-19T02:35:24.750Z,4
2017-07-19T02:36:26.885Z,4
2017-07-19T02:37:29.006Z,4
2017-07-19T02:38:31.081Z,4
2017-07-19T02:39:33.334Z,4
2017-07-19T02:40:35.397Z,8
2017-07-19T02:41:37.572Z,4
2017-07-19T02:42:39.743Z,4
2017-07-19T02:43:41.827Z,4
2017-07-19T02:44:43.973Z,4
2017-07-19T02:45:46.035Z,4
2017-07-19T02:46:48.191Z,4
2017-07-19T02:47:50.714Z,8
2017-07-19T02:48:52.945Z,8
2017-07-19T02:49:55.092Z,4
2017-07-19T02:50:57.687Z,8
2017-07-19T02:52:00.291Z,8
2017-07-19T02:53:02.587Z,8
2017-07-19T02:54:04.737Z,8
2017-07-19T02:55:06.924Z,8
2017-07-19T02:56:09.251Z,16
2017-07-19T02:57:11.410Z,12
2017-07-19T02:58:13.532Z,12
2017-07-19T02:59:15.685Z,12
2017-07-19T03:00:17.919Z,16
2017-07-19T03:01:20.105Z,16
2017-07-19T03:02:22.285Z,20
2017-07-19T03:03:24.432Z,24
2017-07-19T03:04:26.811Z,24
2017-07-19T03:05:28.982Z,28
2017-07-19T03:06:31.138Z,32
2017-07-19T03:07:33.265Z,36
2017-07-19T03:08:35.485Z,40
2017-07-19T03:09:37.545Z,44
2017-07-19T03:10:39.676Z,48
2017-07-19T03:11:41.886Z,64
2017-07-19T03:12:44.052Z,64
2017-07-19T03:13:46.146Z,68
2017-07-19T03:14:48.277Z,80
2017-07-19T03:15:50.571Z,84
2017-07-19T03:16:52.756Z,96
2017-07-19T03:17:54.906Z,104
2017-07-19T03:18:57.061Z,116
2017-07-19T03:19:59.431Z,124
2017-07-19T03:21:01.608Z,140
2017-07-19T03:22:03.836Z,152
2017-07-19T03:23:06.106Z,168
2017-07-19T03:24:08.332Z,180
2017-07-19T03:25:10.474Z,196
2017-07-19T03:26:12.603Z,212
2017-07-19T03:27:14.813Z,232
2017-07-19T03:28:16.993Z,244
2017-07-19T03:29:19.200Z,260
2017-07-19T03:30:21.389Z,272
2017-07-19T03:31:23.529Z,292
2017-07-19T03:32:25.768Z,304
2017-07-19T03:33:27.837Z,320
2017-07-19T03:34:30.033Z,336
2017-07-19T03:35:32.125Z,352
2017-07-19T03:36:34.312Z,376
2017-07-19T03:37:36.438Z,400
2017-07-19T03:38:38.721Z,428
2017-07-19T03:39:40.862Z,448
2017-07-19T03:40:43.045Z,468
2017-07-19T03:41:45.096Z,492
2017-07-19T03:42:47.252Z,512
2017-07-19T03:43:49.424Z,532
2017-07-19T03:44:51.606Z,564
2017-07-19T03:45:53.733Z,596
2017-07-19T03:46:55.925Z,624
2017-07-19T03:47:58.044Z,648
2017-07-19T03:49:00.245Z,672
2017-07-19T03:50:02.312Z,696
2017-07-19T03:51:04.362Z,724
2017-07-19T03:52:06.556Z,764
2017-07-19T03:53:08.688Z,808
2017-07-19T03:54:10.854Z,864
2017-07-19T03:55:13.049Z,940
2017-07-19T03:56:15.243Z,1000
2017-07-19T03:57:17.393Z,1032
2017-07-19T03:58:19.596Z,1064
2017-07-19T03:59:21.761Z,1124
2017-07-19T04:00:23.988Z,1204
2017-07-19T04:01:26.154Z,1264
2017-07-19T04:02:28.340Z,1312
2017-07-19T04:03:30.502Z,1340
2017-07-19T04:04:32.643Z,1356
2017-07-19T04:05:34.793Z,1384
2017-07-19T04:06:36.950Z,1440
2017-07-19T04:07:39.187Z,1488
2017-07-19T04:08:41.367Z,1556
2017-07-19T04:09:43.564Z,1640
2017-07-19T04:10:45.752Z,1704
2017-07-19T04:11:47.859Z,1752
2017-07-19T04:12:50.027Z,1780
2017-07-19T04:13:52.157Z,1804
2017-07-19T04:14:54.323Z,1840
2017-07-19T04:15:56.567Z,1892
2017-07-19T04:16:58.836Z,1944
2017-07-19T04:18:01.034Z,1984
2017-07-19T04:19:03.266Z,2032
2017-07-19T04:20:05.357Z,2072
2017-07-19T04:21:07.538Z,2112
2017-07-19T04:22:09.692Z,2136
2017-07-19T04:23:11.862Z,2164
2017-07-19T04:24:13.940Z,2192
2017-07-19T04:25:16.053Z,2224
2017-07-19T04:26:18.233Z,2268
2017-07-19T04:27:20.279Z,2300
2017-07-19T04:28:22.472Z,2348
2017-07-19T04:29:24.777Z,2416
2017-07-19T04:30:26.996Z,2456
2017-07-19T04:31:29.170Z,2504
2017-07-19T04:32:31.429Z,2556
2017-07-19T04:33:33.736Z,2612
2017-07-19T04:34:35.923Z,2660
2017-07-19T04:35:38.183Z,2692
2017-07-19T04:36:40.458Z,2720
2017-07-19T04:37:42.745Z,2748
2017-07-19T04:38:44.964Z,2772
2017-07-19T04:39:47.280Z,2808
2017-07-19T04:40:49.469Z,2844
2017-07-19T04:41:51.750Z,2888
2017-07-19T04:42:54.057Z,2924
2017-07-19T04:43:56.336Z,2964
2017-07-19T04:44:58.566Z,3012
2017-07-19T04:46:00.838Z,3052
2017-07-19T04:47:03.203Z,3092
2017-07-19T04:48:05.421Z,3144
2017-07-19T04:49:07.663Z,3184
2017-07-19T04:50:09.966Z,3236
2017-07-19T04:51:12.217Z,3276
2017-07-19T04:52:14.429Z,3328
2017-07-19T04:53:16.664Z,3388
2017-07-19T04:54:19.046Z,3436
2017-07-19T04:55:21.285Z,3484
2017-07-19T04:56:23.534Z,3536
2017-07-19T04:57:25.920Z,3588
2017-07-19T04:58:28.130Z,3636
2017-07-19T04:59:30.348Z,3680
2017-07-19T05:00:32.694Z,3720
2017-07-19T05:01:34.856Z,3740
2017-07-19T05:02:36.974Z,3776
2017-07-19T05:03:39.124Z,3816
2017-07-19T05:04:41.289Z,3856
2017-07-19T05:05:43.379Z,3892
2017-07-19T05:06:45.592Z,3928
2017-07-19T05:07:47.748Z,3956
2017-07-19T05:08:49.772Z,3996
2017-07-19T05:09:51.912Z,4032
2017-07-19T05:10:54.085Z,4060
2017-07-19T05:11:56.217Z,4096
2017-07-19T05:12:58.344Z,4124
2017-07-19T05:14:00.505Z,4156
2017-07-19T05:15:02.691Z,4196
2017-07-19T05:16:04.810Z,4244
2017-07-19T05:17:07.004Z,4288
2017-07-19T05:18:09.215Z,4336
2017-07-19T05:19:11.453Z,4396
2017-07-19T05:20:13.747Z,4444
2017-07-19T05:21:16.168Z,4484
2017-07-19T05:22:18.473Z,4524
2017-07-19T05:23:20.704Z,4568
2017-07-19T05:24:22.984Z,4608
2017-07-19T05:25:25.203Z,4652
2017-07-19T05:26:27.656Z,4676
2017-07-19T05:27:29.924Z,4724
2017-07-19T05:28:32.216Z,4752
2017-07-19T05:29:34.447Z,4784
2017-07-19T05:30:36.807Z,4828
2017-07-19T05:31:39.075Z,4872
2017-07-19T05:32:41.355Z,4928
2017-07-19T05:33:43.587Z,4992
2017-07-19T05:34:45.902Z,5052
2017-07-19T05:35:48.179Z,5124
2017-07-19T05:36:50.463Z,5188
2017-07-19T05:37:52.763Z,5240
2017-07-19T05:38:54.957Z,5296
2017-07-19T05:39:57.286Z,5328
2017-07-19T05:40:59.765Z,5368
2017-07-19T05:42:02.112Z,5412
2017-07-19T05:43:04.379Z,5472
2017-07-19T05:44:06.653Z,5548
2017-07-19T05:45:08.832Z,5636
2017-07-19T05:46:11.285Z,5716
2017-07-19T05:47:13.368Z,5776
2017-07-19T05:48:15.559Z,5812
2017-07-19T05:49:18.749Z,5836
2017-07-19T05:50:21.071Z,5872
2017-07-19T05:51:23.342Z,5912
2017-07-19T05:52:25.723Z,5960
2017-07-19T05:53:27.932Z,6004
2017-07-19T05:54:30.168Z,6032
2017-07-19T05:55:32.351Z,6048
2017-07-19T05:56:34.700Z,6056
2017-07-19T05:57:36.958Z,6076
2017-07-19T05:58:39.368Z,6092
2017-07-19T05:59:41.685Z,6116
2017-07-19T06:00:44.052Z,6132
2017-07-19T06:01:46.308Z,6152
2017-07-19T06:02:48.585Z,6184
2017-07-19T06:03:50.882Z,6224
2017-07-19T06:04:53.137Z,6260
2017-07-19T06:05:55.378Z,6288
2017-07-19T06:06:57.693Z,6332
2017-07-19T06:08:00.004Z,6392
2017-07-19T06:09:02.304Z,6440
2017-07-19T06:10:04.636Z,6516
2017-07-19T06:11:06.734Z,6604
2017-07-19T06:12:09.049Z,6696
2017-07-19T06:13:11.318Z,6800
2017-07-19T06:14:13.608Z,6888
2017-07-19T06:15:15.817Z,6944
2017-07-19T06:16:18.066Z,6972
2017-07-19T06:17:20.284Z,7008
2017-07-19T06:18:22.550Z,7072
2017-07-19T06:19:24.778Z,7176
2017-07-19T06:20:26.981Z,7308
2017-07-19T06:21:29.251Z,7436
2017-07-19T06:22:31.480Z,7528
2017-07-19T06:23:33.609Z,7568
2017-07-19T06:24:35.823Z,7528
2017-07-19T06:25:38.091Z,7540
2017-07-19T06:26:40.348Z,7528
2017-07-19T06:27:42.536Z,7544
2017-07-19T06:28:44.836Z,7600
2017-07-19T06:29:47.115Z,7684
2017-07-19T06:30:49.330Z,7772
2017-07-19T06:31:51.578Z,7844
2017-07-19T06:32:53.851Z,7880
2017-07-19T06:33:56.172Z,7920
2017-07-19T06:34:58.461Z,7976
2017-07-19T06:36:00.671Z,8048
2017-07-19T06:37:02.999Z,8108
2017-07-19T06:38:05.092Z,8156
2017-07-19T06:39:07.437Z,8200
2017-07-19T06:40:09.762Z,8224
2017-07-19T06:41:12.069Z,8248
2017-07-19T06:42:14.288Z,8248
2017-07-19T06:43:16.425Z,8256
2017-07-19T06:44:18.668Z,8288
2017-07-19T06:45:20.840Z,8328
2017-07-19T06:46:23.180Z,8388
2017-07-19T06:47:25.344Z,8464
2017-07-19T06:48:27.503Z,8540
2017-07-19T06:49:29.706Z,8612
2017-07-19T06:50:31.994Z,8692
2017-07-19T06:51:34.141Z,8772
2017-07-19T06:52:36.293Z,8880
2017-07-19T06:53:38.545Z,9008
2017-07-19T06:54:40.850Z,9144
2017-07-19T06:55:43.085Z,9276
2017-07-19T06:56:45.203Z,9400
2017-07-19T06:57:47.432Z,9484
2017-07-19T06:58:49.735Z,9552
2017-07-19T06:59:51.947Z,9604
2017-07-19T07:00:54.149Z,9628
2017-07-19T07:01:56.409Z,9656
2017-07-19T07:02:58.670Z,9704
2017-07-19T07:04:00.911Z,9764
2017-07-19T07:05:03.224Z,9816
2017-07-19T07:06:05.413Z,9868
2017-07-19T07:07:07.688Z,9888
2017-07-19T07:08:10.043Z,9900
2017-07-19T07:09:12.306Z,9904
2017-07-19T07:10:14.514Z,9904
2017-07-19T07:11:16.692Z,9916
2017-07-19T07:12:18.975Z,9940
2017-07-19T07:13:21.118Z,10016
2017-07-19T07:14:23.380Z,10112
2017-07-19T07:15:25.664Z,10216
2017-07-19T07:16:27.948Z,10268
2017-07-19T07:17:30.190Z,10296
2017-07-19T07:18:32.386Z,10356
2017-07-19T07:19:34.620Z,10448
2017-07-19T07:20:36.905Z,10536
2017-07-19T07:21:39.236Z,10576
2017-07-19T07:22:41.538Z,10556
2017-07-19T07:23:43.663Z,10560
2017-07-19T07:24:45.944Z,10616
2017-07-19T07:25:48.210Z,10684
2017-07-19T07:26:50.458Z,10756
2017-07-19T07:27:52.522Z,10844
2017-07-19T07:28:54.821Z,10896
2017-07-19T07:29:57.028Z,10908
2017-07-19T07:30:59.329Z,10956
2017-07-19T07:32:01.632Z,11028
2017-07-19T07:33:03.951Z,11124
2017-07-19T07:34:06.181Z,11204
2017-07-19T07:35:08.447Z,11300
2017-07-19T07:36:10.746Z,11348
2017-07-19T07:37:13.007Z,11424
2017-07-19T07:38:15.247Z,11516
2017-07-19T07:39:17.555Z,11664
2017-07-19T07:40:19.728Z,11844
2017-07-19T07:41:21.894Z,12072
2017-07-19T07:42:24.136Z,12316
2017-07-19T07:43:26.347Z,16576
2017-07-19T07:44:28.485Z,36416
2017-07-19T07:45:30.782Z,61120
2017-07-19T07:46:33.114Z,81728
2017-07-19T07:47:35.223Z,83296
2017-07-19T07:48:37.417Z,82976
2017-07-19T07:49:39.684Z,86560
2017-07-19T07:50:41.969Z,85792
2017-07-19T07:51:44.064Z,84416
2017-07-19T07:52:46.458Z,83392
2017-07-19T07:53:48.698Z,81728
2017-07-19T07:54:50.940Z,85600
2017-07-19T07:55:53.142Z,85696
2017-07-19T07:56:55.304Z,82368
2017-07-19T07:57:57.598Z,80544
2017-07-19T07:58:59.965Z,81056
2017-07-19T08:00:02.087Z,81728
2017-07-19T08:01:04.437Z,78240
2017-07-19T08:02:06.682Z,73184
2017-07-19T08:03:08.995Z,75712
2017-07-19T08:04:11.260Z,78368
2017-07-19T08:05:13.416Z,76192
2017-07-19T08:06:15.511Z,77856
2017-07-19T08:07:17.668Z,80960
2017-07-19T08:08:19.864Z,79264
2017-07-19T08:09:22.782Z,78624
2017-07-19T08:10:25.004Z,79968
2017-07-19T08:11:27.125Z,80480
2017-07-19T08:12:29.180Z,79712
2017-07-19T08:13:31.434Z,76736
2017-07-19T08:14:33.612Z,78080
2017-07-19T08:15:35.875Z,80928
2017-07-19T08:16:38.089Z,84960
2017-07-19T08:17:40.307Z,83456
2017-07-19T08:18:42.511Z,81024
2017-07-19T08:19:44.652Z,81184
2017-07-19T08:20:46.873Z,81056
2017-07-19T08:21:49.039Z,79104
2017-07-19T08:22:51.174Z,80096
2017-07-19T08:23:53.427Z,78624
2017-07-19T08:24:55.664Z,71488
2017-07-19T08:25:57.890Z,77568
2017-07-19T08:27:00.177Z,77856
2017-07-19T08:28:02.430Z,73152
2017-07-19T08:29:04.610Z,75808
2017-07-19T08:30:06.720Z,79328
2017-07-19T08:31:08.975Z,76704
2017-07-19T08:32:11.279Z,78400
2017-07-19T08:33:13.495Z,81376
2017-07-19T08:34:15.583Z,78688
2017-07-19T08:35:17.790Z,78528
2017-07-19T08:36:20.015Z,77152
2017-07-19T08:37:22.236Z,74048
2017-07-19T08:38:24.449Z,80224
2017-07-19T08:39:26.629Z,81472
2017-07-19T08:40:29.033Z,81440
2017-07-19T08:41:31.330Z,82464
2017-07-19T08:42:33.586Z,84928
2017-07-19T08:43:35.864Z,84032
2017-07-19T08:44:38.106Z,79552
2017-07-19T08:45:40.364Z,75232
2017-07-19T08:46:42.660Z,78272
2017-07-19T08:47:44.852Z,75328
2017-07-19T08:48:47.113Z,75808
2017-07-19T08:49:49.222Z,76128
2017-07-19T08:50:51.484Z,74400
2017-07-19T08:51:53.851Z,75424
2017-07-19T08:52:55.864Z,75776
2017-07-19T08:53:58.145Z,77856
2017-07-19T08:55:00.406Z,79008
2017-07-19T08:56:02.683Z,78880
2017-07-19T08:57:04.922Z,80800
2017-07-19T08:58:07.197Z,80160
2017-07-19T08:59:09.311Z,80352
2017-07-19T09:00:11.614Z,78144
2017-07-19T09:01:13.876Z,77024
2017-07-19T09:02:16.014Z,77248
2017-07-19T09:03:18.325Z,81888
2017-07-19T09:04:20.398Z,82656
2017-07-19T09:05:22.653Z,81056
2017-07-19T09:06:24.891Z,82112
2017-07-19T09:07:27.078Z,80576
2017-07-19T09:08:29.250Z,79776
2017-07-19T09:09:31.423Z,83360
2017-07-19T09:10:33.639Z,84032
2017-07-19T09:11:35.737Z,80544
2017-07-19T09:12:37.946Z,80576
2017-07-19T09:13:40.137Z,85728
2017-07-19T09:14:42.373Z,81920
2017-07-19T09:15:44.541Z,76768
2017-07-19T09:16:46.820Z,84864
2017-07-19T09:17:49.047Z,86400
2017-07-19T09:18:51.309Z,81440
2017-07-19T09:19:53.472Z,80352
2017-07-19T09:20:55.661Z,74976
2017-07-19T09:21:57.867Z,75296
2017-07-19T09:23:00.065Z,72576
2017-07-19T09:24:02.231Z,72384
2017-07-19T09:25:04.461Z,73952
2017-07-19T09:26:06.693Z,75872
2017-07-19T09:27:08.886Z,76320
2017-07-19T09:28:11.123Z,74112
2017-07-19T09:29:13.330Z,74656
2017-07-19T09:30:15.506Z,73024
2017-07-19T09:31:17.701Z,73344
2017-07-19T09:32:19.834Z,73376
2017-07-19T09:33:22.111Z,70592
2017-07-19T09:34:24.238Z,72256
2017-07-19T09:35:26.460Z,74112
2017-07-19T09:36:28.644Z,78816
2017-07-19T09:37:30.824Z,78688
2017-07-19T09:38:33.040Z,75040
2017-07-19T09:39:35.332Z,77792
2017-07-19T09:40:37.524Z,76640
2017-07-19T09:41:39.731Z,73600
2017-07-19T09:42:42.005Z,72128
2017-07-19T09:43:44.367Z,67648
2017-07-19T09:44:46.630Z,69504
2017-07-19T09:45:48.844Z,71072
2017-07-19T09:46:50.983Z,71104
2017-07-19T09:47:53.243Z,72480
2017-07-19T09:48:55.426Z,69216
2017-07-19T09:49:57.591Z,68000
2017-07-19T09:50:59.776Z,64672
2017-07-19T09:52:02.111Z,64320
2017-07-19T09:53:04.273Z,64928
2017-07-19T09:54:06.457Z,67072
2017-07-19T09:55:08.691Z,64544
2017-07-19T09:56:10.844Z,63232
2017-07-19T09:57:13.129Z,60896
2017-07-19T09:58:15.368Z,61088
2017-07-19T09:59:17.633Z,57280
2017-07-19T10:00:19.806Z,56320
2017-07-19T10:01:22.044Z,60352
2017-07-19T10:02:24.290Z,62176
2017-07-19T10:03:26.447Z,61728
2017-07-19T10:04:28.613Z,58240
2017-07-19T10:05:30.830Z,55744
2017-07-19T10:06:33.097Z,59392
2017-07-19T10:07:35.315Z,54880
2017-07-19T10:08:37.556Z,58432
2017-07-19T10:09:39.802Z,56032
2017-07-19T10:10:42.002Z,54400
2017-07-19T10:11:44.135Z,51808
2017-07-19T10:12:46.369Z,49312
2017-07-19T10:13:48.617Z,50880
2017-07-19T10:14:50.876Z,47424
2017-07-19T10:15:53.128Z,40224
2017-07-19T10:16:55.404Z,45440
2017-07-19T10:17:57.666Z,42464
2017-07-19T10:18:59.748Z,44704
2017-07-19T10:20:01.906Z,43680
2017-07-19T10:21:04.155Z,41472
2017-07-19T10:22:06.333Z,41056
2017-07-19T10:23:08.693Z,44384
2017-07-19T10:24:10.881Z,47136
2017-07-19T10:25:13.113Z,49088
2017-07-19T10:26:15.297Z,49280
2017-07-19T10:27:17.524Z,48256
2017-07-19T10:28:19.763Z,44960
2017-07-19T10:29:22.035Z,49728
2017-07-19T10:30:24.201Z,49088
2017-07-19T10:31:26.363Z,46240
2017-07-19T10:32:28.567Z,49376
2017-07-19T10:33:30.910Z,47712
2017-07-19T10:34:33.174Z,45696
2017-07-19T10:35:35.388Z,45152
2017-07-19T10:36:37.597Z,44992
2017-07-19T10:37:39.846Z,42816
2017-07-19T10:38:41.998Z,36576
2017-07-19T10:39:44.129Z,29024
2017-07-19T10:40:46.351Z,22784
2017-07-19T10:41:48.604Z,20448
2017-07-19T10:42:50.790Z,19840
2017-07-19T10:43:53.025Z,19552
2017-07-19T10:44:55.272Z,19392
2017-07-19T10:45:57.479Z,19232
2017-07-19T10:46:59.739Z,19168
2017-07-19T10:48:02.000Z,18656
2017-07-19T10:49:04.235Z,18784
2017-07-19T10:50:06.440Z,18208
2017-07-19T10:51:08.661Z,18624
2017-07-19T10:52:10.843Z,18240
2017-07-19T10:53:13.114Z,17920
2017-07-19T10:54:15.383Z,17920
2017-07-19T10:55:17.657Z,17248
2017-07-19T10:56:20.052Z,17536
2017-07-19T10:57:22.311Z,18016
2017-07-19T10:58:24.476Z,18752
2017-07-19T10:59:26.818Z,19424
2017-07-19T11:00:29.141Z,19648
2017-07-19T11:01:31.424Z,19680
2017-07-19T11:02:33.631Z,19392
2017-07-19T11:03:35.932Z,19488
2017-07-19T11:04:38.166Z,18752
2017-07-19T11:05:40.346Z,18784
2017-07-19T11:06:42.645Z,18752
2017-07-19T11:07:44.882Z,19040
2017-07-19T11:08:47.056Z,22176
2017-07-19T11:09:49.222Z,24544
2017-07-19T11:10:51.448Z,31744
2017-07-19T11:11:53.859Z,34720
2017-07-19T11:12:55.991Z,28832
2017-07-19T11:13:58.181Z,29216
2017-07-19T11:15:00.478Z,29760
2017-07-19T11:16:02.678Z,27008
2017-07-19T11:17:04.888Z,25792
2017-07-19T11:18:07.159Z,26240
2017-07-19T11:19:09.342Z,30016
2017-07-19T11:20:11.581Z,28928
2017-07-19T11:21:13.725Z,27904
2017-07-19T11:22:16.006Z,27424
2017-07-19T11:23:18.250Z,26112
2017-07-19T11:24:20.445Z,25792
2017-07-19T11:25:22.722Z,26560
2017-07-19T11:26:24.937Z,25664
2017-07-19T11:27:27.142Z,23136
2017-07-19T11:28:29.429Z,24224
2017-07-19T11:29:31.626Z,23808
2017-07-19T11:30:33.891Z,23424
2017-07-19T11:31:36.042Z,21600
2017-07-19T11:32:38.254Z,20576
2017-07-19T11:33:40.582Z,22656
2017-07-19T11:34:42.768Z,24896
2017-07-19T11:35:44.975Z,23488
2017-07-19T11:36:47.212Z,22496
2017-07-19T11:37:49.497Z,21600
2017-07-19T11:38:51.713Z,21728
2017-07-19T11:39:54.008Z,20768
2017-07-19T11:40:56.232Z,19360
2017-07-19T11:41:58.441Z,20160
2017-07-19T11:43:00.614Z,21760
2017-07-19T11:44:02.874Z,21600
2017-07-19T11:45:05.054Z,20576
2017-07-19T11:46:07.313Z,19584
2017-07-19T11:47:09.568Z,19904
2017-07-19T11:48:11.761Z,20128
2017-07-19T11:49:14.111Z,19392
2017-07-19T11:50:16.252Z,19360
2017-07-19T11:51:18.423Z,19104
2017-07-19T11:52:20.650Z,17888
2017-07-19T11:53:22.905Z,17664
2017-07-19T11:54:25.217Z,16640
2017-07-19T11:55:27.518Z,15704
2017-07-19T11:56:29.824Z,17792
2017-07-19T11:57:32.064Z,18816
2017-07-19T11:58:34.237Z,18944
2017-07-19T11:59:36.505Z,18688
2017-07-19T12:00:38.783Z,18144
2017-07-19T12:01:40.992Z,18720
2017-07-19T12:02:43.281Z,17184
2017-07-19T12:03:45.480Z,16448
2017-07-19T12:04:47.683Z,16864
2017-07-19T12:05:49.853Z,17376
2017-07-19T12:06:52.109Z,17568
2017-07-19T12:07:54.411Z,17216
2017-07-19T12:08:56.732Z,18080
2017-07-19T12:09:59.037Z,17152
2017-07-19T12:11:01.288Z,16288
2017-07-19T12:12:03.458Z,15584
2017-07-19T12:13:05.652Z,15520
2017-07-19T12:14:07.888Z,15108
2017-07-19T12:15:10.106Z,15000
2017-07-19T12:16:12.292Z,15456
2017-07-19T12:17:14.494Z,14152
2017-07-19T12:18:16.704Z,15264
2017-07-19T12:19:18.941Z,16704
2017-07-19T12:20:21.183Z,16640
2017-07-19T12:21:23.399Z,16704
2017-07-19T12:22:25.747Z,16224
2017-07-19T12:23:27.969Z,16000
2017-07-19T12:24:30.143Z,17120
2017-07-19T12:25:32.385Z,16576
2017-07-19T12:26:34.699Z,15872
2017-07-19T12:27:37.000Z,13608
2017-07-19T12:28:39.244Z,14944
2017-07-19T12:29:41.542Z,15712
2017-07-19T12:30:43.764Z,15360
2017-07-19T12:31:46.005Z,15104
2017-07-19T12:32:48.222Z,15936
2017-07-19T12:33:50.464Z,16288
2017-07-19T12:34:52.699Z,16192
2017-07-19T12:35:54.981Z,15904
2017-07-19T12:36:57.199Z,15648
2017-07-19T12:37:59.378Z,14784
2017-07-19T12:39:01.672Z,14228
2017-07-19T12:40:03.839Z,13300
2017-07-19T12:41:06.073Z,12188
2017-07-19T12:42:08.308Z,11876
2017-07-19T12:43:10.540Z,11912
2017-07-19T12:44:12.735Z,11960
2017-07-19T12:45:14.988Z,12092
2017-07-19T12:46:17.162Z,12256
2017-07-19T12:47:19.394Z,12232
2017-07-19T12:48:21.605Z,12128
2017-07-19T12:49:23.833Z,12060
2017-07-19T12:50:25.992Z,11708
2017-07-19T12:51:28.160Z,11664
2017-07-19T12:52:30.444Z,11768
2017-07-19T12:53:32.645Z,11696
2017-07-19T12:54:34.953Z,11556
2017-07-19T12:55:37.321Z,11216
2017-07-19T12:56:39.605Z,10780
2017-07-19T12:57:41.793Z,10972
2017-07-19T12:58:44.087Z,11420
2017-07-19T12:59:46.309Z,11720
2017-07-19T13:00:48.553Z,11924
2017-07-19T13:01:50.796Z,11904
2017-07-19T13:02:52.984Z,11996
2017-07-19T13:03:55.177Z,12084
2017-07-19T13:04:57.476Z,11904
2017-07-19T13:05:59.705Z,11348
2017-07-19T13:07:01.962Z,10732
2017-07-19T13:08:04.201Z,11440
2017-07-19T13:09:06.449Z,12148
2017-07-19T13:10:08.688Z,12460
2017-07-19T13:11:10.897Z,12532
2017-07-19T13:12:13.155Z,12608
2017-07-19T13:13:15.349Z,12740
2017-07-19T13:14:17.704Z,12836
2017-07-19T13:15:19.983Z,12728
2017-07-19T13:16:22.223Z,12764
2017-07-19T13:17:24.316Z,12800
2017-07-19T13:18:26.606Z,12812
2017-07-19T13:19:28.875Z,12680
2017-07-19T13:20:31.135Z,12876
2017-07-19T13:21:33.400Z,13000
2017-07-19T13:22:35.644Z,13184
2017-07-19T13:23:37.793Z,13036
2017-07-19T13:24:40.089Z,13156
2017-07-19T13:25:42.340Z,13192
2017-07-19T13:26:44.648Z,12960
2017-07-19T13:27:46.894Z,12944
2017-07-19T13:28:49.115Z,12984
2017-07-19T13:29:51.389Z,13012
2017-07-19T13:30:53.629Z,8656
2017-07-19T13:31:55.930Z,13200
2017-07-19T13:32:58.189Z,12256
2017-07-19T13:34:00.387Z,13348
2017-07-19T13:35:02.699Z,13388
2017-07-19T13:36:04.893Z,13452
2017-07-19T13:37:07.188Z,13272
2017-07-19T13:38:09.409Z,13172
2017-07-19T13:39:11.610Z,13284
2017-07-19T13:40:13.876Z,13208
2017-07-19T13:41:16.126Z,13196
2017-07-19T13:42:18.266Z,13244
2017-07-19T13:43:20.608Z,13120
2017-07-19T13:44:22.801Z,13060
2017-07-19T13:45:25.038Z,13052
2017-07-19T13:46:27.113Z,13080
2017-07-19T13:47:29.361Z,13152
2017-07-19T13:48:31.567Z,13144
2017-07-19T13:49:33.760Z,13212
2017-07-19T13:50:36.062Z,13208
2017-07-19T13:51:38.188Z,13128
2017-07-19T13:52:40.471Z,13088
2017-07-19T13:53:43.216Z,11628
2017-07-19T13:54:45.443Z,12340